LFRM 210400Z AUTO 35006KT CAVOK 02/00 Q1037

ElémentsDécodage
LFRM Station météo située sur l'aérodrome de LE-MANS Arnage
210400Z émis le 21 du mois à 04h00 UTC
AUTO Bulletin édité par un automate
35006KT vent du 350°, 06 noeuds
CAVOK Ceiling And Visibility OK
- Visibilité de 10 Km ou plus
- Pas de nuage au-dessous de 1500m ou au-dessous de l'altitude minimale du secteur la plus élevée (si>1500m) et absence de CB
- pas de temps présent significatif
02/00 température 02°C, point de rosée 00°C
 soit une humidité relative de 87%
Q1037 la pression au niveau de la mer (QNH) est de 1037 hPa